Time;durP1;ratioP1;P1;durP2;ratioP2;P2;SDS_P1;SDS_P2;PMS_P1;PMS_P2;Temp;Humidity;BMP_temperature;BMP_pressure;BME280_temperature;BME280_humidity;BME280_pressure;Samples;Min_cycle;Max_cycle;Signal;HPM_P1;HPM_P2
2021/08/24 00:02:04;;;;;;;9.65;6.90;;;18.40;84.20;;;;;;6229190;28;20914;-78
2021/08/24 00:05:08;;;;;;;6.90;6.30;;;18.40;84.90;;;;;;6229387;28;21115;-78
2021/08/24 00:08:19;;;;;;;8.27;6.93;;;18.30;85.10;;;;;;6228949;28;20497;-78
2021/08/24 00:11:21;;;;;;;8.18;7.03;;;18.30;85.10;;;;;;6227643;28;20511;-78
2021/08/24 00:14:23;;;;;;;8.88;7.45;;;18.30;85.30;;;;;;6229284;28;20519;-78
2021/08/24 00:21:23;;;;;;;9.18;8.27;;;18.30;84.70;;;;;;6228591;28;20436;-78
2021/08/24 00:24:25;;;;;;;8.80;7.30;;;18.10;85.50;;;;;;6229114;28;20488;-78
2021/08/24 00:27:27;;;;;;;11.57;7.07;;;18.10;85.60;;;;;;6228547;28;20519;-78
2021/08/24 00:30:29;;;;;;;8.65;7.15;;;18.10;85.80;;;;;;6229774;28;20441;-78
2021/08/24 00:33:30;;;;;;;8.00;7.20;;;18.00;85.20;;;;;;6227315;28;20424;-78
2021/08/24 00:36:34;;;;;;;10.63;6.88;;;17.90;85.20;;;;;;6226928;28;20427;-78
2021/08/24 00:39:35;;;;;;;9.02;6.40;;;17.80;84.60;;;;;;6229404;28;20423;-78
2021/08/24 00:42:38;;;;;;;9.93;7.05;;;17.80;84.80;;;;;;6229047;28;20496;-79
2021/08/24 00:45:43;;;;;;;7.68;6.75;;;17.70;85.10;;;;;;6228728;28;20432;-78
2021/08/24 00:48:45;;;;;;;7.70;7.00;;;17.60;85.10;;;;;;6226261;28;20638;-77
2021/08/24 00:51:52;;;;;;;8.02;7.32;;;17.60;85.20;;;;;;6227491;28;20417;-77
2021/08/24 00:54:56;;;;;;;8.70;7.43;;;17.50;85.40;;;;;;6229023;28;20401;-78
2021/08/24 00:58:01;;;;;;;7.83;7.13;;;17.50;85.90;;;;;;6225755;28;20501;-78
2021/08/24 01:01:03;;;;;;;7.97;7.03;;;17.50;86.00;;;;;;6226223;28;20413;-78
2021/08/24 01:04:05;;;;;;;10.02;6.63;;;16.00;85.00;;;;;;6225388;28;20420;-77
2021/08/24 01:07:17;;;;;;;8.73;7.85;;;17.50;85.70;;;;;;6225348;28;20507;-78
2021/08/24 01:10:23;;;;;;;9.48;7.70;;;17.40;85.90;;;;;;6225921;28;20501;-78
2021/08/24 01:13:32;;;;;;;8.70;6.78;;;17.60;86.60;;;;;;6224822;28;21072;-77
2021/08/24 01:16:40;;;;;;;8.30;7.10;;;17.40;85.60;;;;;;6224920;28;20558;-78
2021/08/24 01:20:23;;;;;;;9.70;8.07;;;17.40;85.60;;;;;;6225116;28;20429;-77
2021/08/24 01:23:45;;;;;;;10.10;8.23;;;17.40;85.00;;;;;;6173835;28;20486;-78
2021/08/24 01:26:56;;;;;;;8.02;7.32;;;17.30;85.00;;;;;;6177706;28;20574;-78
2021/08/24 01:30:12;;;;;;;11.18;8.05;;;17.20;85.40;;;;;;6225078;28;20847;-77
2021/08/24 01:33:25;;;;;;;9.02;7.90;;;17.10;85.70;;;;;;6223975;28;20964;-78
2021/08/24 01:36:32;;;;;;;8.55;7.60;;;17.10;85.80;;;;;;6223940;28;20466;-78
2021/08/24 01:39:41;;;;;;;8.27;7.47;;;17.10;85.50;;;;;;6224529;28;20543;-77
2021/08/24 01:42:45;;;;;;;8.30;7.07;;;17.00;86.00;;;;;;6223980;28;20474;-78
2021/08/24 01:45:52;;;;;;;7.88;7.10;;;17.00;85.90;;;;;;6224918;28;20616;-78
2021/08/24 01:48:59;;;;;;;11.40;7.90;;;17.00;85.80;;;;;;6223828;28;20541;-77
2021/08/24 01:52:07;;;;;;;10.20;7.85;;;16.90;85.80;;;;;;6224073;28;20559;-78
2021/08/24 01:55:14;;;;;;;10.15;7.85;;;16.90;86.10;;;;;;6223270;28;20482;-77
2021/08/24 01:58:22;;;;;;;10.02;8.48;;;16.80;86.00;;;;;;6224622;28;20570;-78
2021/08/24 02:01:31;;;;;;;10.73;7.95;;;16.80;86.00;;;;;;6223392;28;20506;-77
2021/08/24 02:04:38;;;;;;;12.25;8.68;;;16.80;86.60;;;;;;6223622;28;20479;-78
2021/08/24 02:07:43;;;;;;;8.73;7.82;;;16.70;86.20;;;;;;6222791;28;20630;-77
2021/08/24 02:10:46;;;;;;;8.73;7.68;;;16.70;86.50;;;;;;6223603;28;20567;-78
2021/08/24 02:13:51;;;;;;;8.32;7.28;;;16.70;86.00;;;;;;6224342;28;20623;-78
2021/08/24 02:16:55;;;;;;;11.47;8.03;;;16.60;86.20;;;;;;6223704;28;20553;-78
2021/08/24 02:20:01;;;;;;;11.27;7.10;;;16.60;86.40;;;;;;6223412;28;20495;-78
2021/08/24 02:23:08;;;;;;;9.27;7.22;;;16.50;86.20;;;;;;6223679;28;21050;-77
2021/08/24 02:26:13;;;;;;;7.57;6.88;;;16.50;86.00;;;;;;6223067;28;20622;-78
2021/08/24 02:29:15;;;;;;;8.38;7.45;;;16.40;85.80;;;;;;6223405;28;20466;-78
2021/08/24 02:32:22;;;;;;;7.95;7.03;;;16.50;86.40;;;;;;6223289;28;20471;-77
2021/08/24 02:35:29;;;;;;;7.65;6.93;;;16.40;87.00;;;;;;6222827;28;20534;-78
2021/08/24 02:38:37;;;;;;;9.20;6.75;;;16.40;86.10;;;;;;6223055;28;20501;-77
2021/08/24 02:41:45;;;;;;;7.93;7.18;;;16.40;85.80;;;;;;6224179;28;20585;-77
2021/08/24 02:44:52;;;;;;;8.68;7.38;;;16.40;85.60;;;;;;6223571;28;20508;-78
2021/08/24 02:47:55;;;;;;;9.98;6.25;;;16.30;85.90;;;;;;6223689;28;20500;-78
2021/08/24 02:50:57;;;;;;;7.32;6.63;;;16.50;85.80;;;;;;6222935;28;20686;-78
2021/08/24 02:54:07;;;;;;;8.30;6.72;;;16.30;85.80;;;;;;6223748;28;20579;-77
2021/08/24 02:57:10;;;;;;;8.50;7.07;;;16.20;85.90;;;;;;6222634;28;20482;-77
2021/08/24 03:00:12;;;;;;;7.85;7.03;;;16.20;86.00;;;;;;6223210;28;20541;-78
2021/08/24 03:03:14;;;;;;;8.15;6.93;;;16.20;86.30;;;;;;6223644;28;20496;-78
2021/08/24 03:06:16;;;;;;;9.65;6.43;;;16.10;86.20;;;;;;6223660;28;20874;-77
2021/08/24 03:09:22;;;;;;;8.60;6.60;;;16.10;86.10;;;;;;6222753;28;20448;-77
2021/08/24 03:12:33;;;;;;;10.10;7.30;;;16.00;85.70;;;;;;6223502;28;20436;-78
2021/08/24 03:15:41;;;;;;;8.05;6.90;;;16.00;85.90;;;;;;6223787;28;20487;-78
2021/08/24 03:18:47;;;;;;;7.50;6.80;;;16.00;85.90;;;;;;6224324;28;20987;-78
2021/08/24 03:21:51;;;;;;;10.20;7.32;;;15.90;85.70;;;;;;6229066;28;20473;-78
2021/08/24 03:24:54;;;;;;;8.90;8.00;;;15.80;85.00;;;;;;6228421;28;20437;-78
2021/08/24 03:27:56;;;;;;;9.43;8.52;;;15.80;85.50;;;;;;6228294;28;20448;-78
2021/08/24 03:30:57;;;;;;;10.02;8.63;;;15.80;85.20;;;;;;6228330;28;20415;-77
2021/08/24 03:33:59;;;;;;;8.65;7.80;;;15.80;86.30;;;;;;6228587;28;20590;-78
2021/08/24 03:37:01;;;;;;;7.95;7.25;;;16.00;86.40;;;;;;6227532;28;20502;-78
2021/08/24 03:40:07;;;;;;;8.83;7.93;;;15.60;85.90;;;;;;6227263;28;20512;-77
2021/08/24 03:43:09;;;;;;;9.23;8.23;;;15.60;85.90;;;;;;6228351;28;20421;-77
2021/08/24 03:46:10;;;;;;;8.88;7.85;;;15.80;86.70;;;;;;6227612;28;20464;-78
2021/08/24 03:49:12;;;;;;;8.10;7.30;;;15.50;86.30;;;;;;6227924;28;20918;-78
2021/08/24 03:52:14;;;;;;;8.85;7.55;;;15.50;86.60;;;;;;6227624;28;20624;-78
2021/08/24 03:55:18;;;;;;;9.63;8.50;;;15.50;86.60;;;;;;6227208;28;20551;-78
2021/08/24 03:58:20;;;;;;;12.60;8.27;;;15.50;86.90;;;;;;6227141;28;20818;-78
2021/08/24 04:01:22;;;;;;;11.32;7.75;;;15.40;87.00;;;;;;6225555;28;20431;-77
2021/08/24 04:04:23;;;;;;;8.50;7.57;;;15.40;86.60;;;;;;6224860;28;20451;-77
2021/08/24 04:07:26;;;;;;;11.15;8.77;;;15.40;86.40;;;;;;6224586;28;20421;-77
2021/08/24 04:10:29;;;;;;;8.20;7.10;;;15.40;86.00;;;;;;6226302;28;20439;-78
2021/08/24 04:13:31;;;;;;;9.38;7.90;;;15.40;85.80;;;;;;6226351;28;20555;-78
2021/08/24 04:16:33;;;;;;;11.38;7.55;;;15.30;86.60;;;;;;6225314;28;20498;-78
2021/08/24 04:19:35;;;;;;;12.07;8.52;;;15.30;86.50;;;;;;6225608;28;20480;-77
2021/08/24 04:22:40;;;;;;;9.55;7.97;;;15.30;86.30;;;;;;6225313;28;20515;-78
2021/08/24 04:25:43;;;;;;;10.35;8.68;;;15.30;86.50;;;;;;6225750;28;20933;-77
2021/08/24 04:28:45;;;;;;;11.65;8.75;;;15.30;86.40;;;;;;6225530;28;20416;-78
2021/08/24 04:31:47;;;;;;;13.18;10.10;;;15.20;86.00;;;;;;6224354;28;20492;-77
2021/08/24 04:34:49;;;;;;;11.68;9.98;;;15.70;86.60;;;;;;6227865;28;20504;-77
2021/08/24 04:37:50;;;;;;;11.15;9.85;;;15.10;86.80;;;;;;6256387;28;20425;-77
2021/08/24 04:40:54;;;;;;;13.35;11.63;;;15.10;87.50;;;;;;6256166;28;20405;-77
2021/08/24 04:43:56;;;;;;;11.27;9.25;;;15.10;88.20;;;;;;6255787;28;20420;-76
2021/08/24 04:46:57;;;;;;;12.07;9.07;;;15.40;87.70;;;;;;6254775;28;20408;-76
2021/08/24 04:49:59;;;;;;;12.07;8.48;;;15.10;87.10;;;;;;6255342;28;20428;-76
2021/08/24 04:53:01;;;;;;;9.10;7.80;;;15.00;87.60;;;;;;6254483;28;20425;-76
2021/08/24 04:56:05;;;;;;;12.18;7.80;;;15.60;87.60;;;;;;6254595;28;20397;-76
2021/08/24 04:59:06;;;;;;;9.02;7.75;;;15.20;87.30;;;;;;6253954;28;20485;-77
2021/08/24 05:02:08;;;;;;;11.27;7.90;;;15.30;88.00;;;;;;6254330;28;20417;-76
2021/08/24 05:05:11;;;;;;;10.18;9.05;;;15.30;86.00;;;;;;6253611;28;20455;-76
2021/08/24 05:08:12;;;;;;;10.70;8.77;;;15.40;86.30;;;;;;6253623;28;20416;-76
2021/08/24 05:11:16;;;;;;;11.60;9.90;;;15.50;86.50;;;;;;6253601;28;20463;-76
2021/08/24 05:14:18;;;;;;;10.30;9.25;;;15.30;86.70;;;;;;6253593;28;20417;-76
2021/08/24 05:17:20;;;;;;;10.77;9.77;;;15.30;86.60;;;;;;6239117;28;20451;-77
2021/08/24 05:20:21;;;;;;;11.65;8.77;;;15.40;86.80;;;;;;6221604;28;20474;-77
2021/08/24 05:23:23;;;;;;;9.93;9.00;;;15.40;86.70;;;;;;6221474;28;20841;-77
2021/08/24 05:26:26;;;;;;;10.60;9.60;;;15.50;86.40;;;;;;6221757;28;20429;-77
2021/08/24 05:29:28;;;;;;;8.68;7.63;;;15.60;86.50;;;;;;6221209;28;20496;-77
2021/08/24 05:32:30;;;;;;;7.97;7.25;;;15.70;86.80;;;;;;6221571;28;20493;-77
2021/08/24 05:35:32;;;;;;;10.30;6.57;;;15.90;86.00;;;;;;6221037;28;20412;-77
2021/08/24 05:38:35;;;;;;;8.88;6.93;;;16.10;85.30;;;;;;6221667;28;20432;-77
2021/08/24 05:41:38;;;;;;;7.47;6.30;;;16.30;84.40;;;;;;6221236;28;20779;-77
2021/08/24 05:44:40;;;;;;;7.82;6.13;;;16.40;83.50;;;;;;6220663;28;21031;-77
2021/08/24 05:47:42;;;;;;;7.68;6.88;;;16.60;82.50;;;;;;6221154;28;20502;-77
2021/08/24 05:50:44;;;;;;;7.90;6.30;;;16.60;82.50;;;;;;6221324;28;20471;-76
2021/08/24 05:53:46;;;;;;;9.00;6.20;;;16.70;81.60;;;;;;6221093;28;21010;-77
2021/08/24 05:56:49;;;;;;;8.07;6.05;;;16.70;81.60;;;;;;6220142;28;21044;-76
2021/08/24 05:59:52;;;;;;;6.57;5.87;;;16.80;82.00;;;;;;6220878;28;20895;-77
2021/08/24 06:02:54;;;;;;;8.82;5.75;;;16.90;81.60;;;;;;6220298;28;20478;-77
2021/08/24 06:05:55;;;;;;;6.85;5.63;;;17.00;81.00;;;;;;6202157;28;20515;-76
2021/08/24 06:08:58;;;;;;;9.15;5.60;;;17.10;80.80;;;;;;6213091;28;20476;-76
2021/08/24 06:12:01;;;;;;;7.72;5.30;;;17.30;81.00;;;;;;6196176;28;20937;-76
2021/08/24 06:15:04;;;;;;;6.55;5.47;;;17.50;79.60;;;;;;6215295;28;20571;-76
2021/08/24 06:18:05;;;;;;;7.60;4.93;;;17.70;79.10;;;;;;6220983;28;20479;-76
2021/08/24 06:21:07;;;;;;;8.13;4.95;;;18.00;77.90;;;;;;6220202;28;20864;-76
2021/08/24 06:24:10;;;;;;;16.57;6.87;;;18.30;76.90;;;;;;6195807;28;20473;-76
2021/08/24 06:27:13;;;;;;;6.53;4.80;;;18.40;77.30;;;;;;6195793;28;20446;-77
2021/08/24 06:30:15;;;;;;;6.53;4.40;;;18.70;75.30;;;;;;6196094;28;20528;-76
2021/08/24 06:33:17;;;;;;;7.35;4.22;;;18.90;74.60;;;;;;6195974;28;20422;-77
2021/08/24 06:36:19;;;;;;;6.97;4.47;;;19.10;73.30;;;;;;6195568;28;20419;-77
2021/08/24 06:39:21;;;;;;;8.55;4.63;;;19.10;73.10;;;;;;6204908;28;20412;-77
2021/08/24 06:42:25;;;;;;;5.10;4.33;;;19.10;72.20;;;;;;6220846;28;20436;-77
2021/08/24 06:45:28;;;;;;;6.60;4.83;;;19.10;73.30;;;;;;6219940;28;20423;-77
2021/08/24 06:48:30;;;;;;;6.07;3.77;;;19.20;72.00;;;;;;6219361;28;20459;-77
2021/08/24 06:51:33;;;;;;;6.03;4.60;;;19.30;72.20;;;;;;6220160;28;20548;-77
2021/08/24 06:54:35;;;;;;;5.07;3.67;;;19.40;71.60;;;;;;6223366;28;20432;-77
2021/08/24 06:57:38;;;;;;;5.97;4.22;;;19.60;71.50;;;;;;6225186;28;20574;-77
2021/08/24 07:00:41;;;;;;;3.92;3.53;;;19.90;70.70;;;;;;6224989;28;20413;-77
2021/08/24 07:03:43;;;;;;;8.23;4.35;;;20.20;68.30;;;;;;6224829;28;20491;-77
2021/08/24 07:06:50;;;;;;;4.13;3.70;;;20.00;68.60;;;;;;6224713;28;20519;-77
2021/08/24 07:09:52;;;;;;;5.30;3.78;;;19.90;67.20;;;;;;6225586;28;20436;-77
2021/08/24 07:12:55;;;;;;;5.95;3.65;;;19.90;66.60;;;;;;6220626;28;20435;-77
2021/08/24 07:15:58;;;;;;;6.10;3.95;;;19.70;67.20;;;;;;6199730;28;20920;-77
2021/08/24 07:19:01;;;;;;;5.65;3.60;;;19.70;66.20;;;;;;6200330;28;20493;-76
2021/08/24 07:22:04;;;;;;;4.37;3.20;;;19.70;66.90;;;;;;6200404;28;20983;-76
2021/08/24 07:25:09;;;;;;;4.95;3.40;;;19.80;65.90;;;;;;6199767;28;20418;-76
2021/08/24 07:28:12;;;;;;;4.32;3.40;;;19.80;65.30;;;;;;6199862;28;20484;-76
2021/08/24 07:31:14;;;;;;;6.93;3.17;;;19.60;66.10;;;;;;6199826;28;20891;-77
2021/08/24 07:34:16;;;;;;;3.72;2.72;;;19.60;66.40;;;;;;6199787;28;20523;-76
2021/08/24 07:37:18;;;;;;;3.38;2.70;;;19.80;66.40;;;;;;6199901;28;20549;-76
2021/08/24 07:40:19;;;;;;;4.07;3.10;;;19.90;64.90;;;;;;6199874;28;20497;-77
2021/08/24 07:43:24;;;;;;;4.38;2.47;;;19.80;65.30;;;;;;6199473;28;20414;-77
2021/08/24 07:46:26;;;;;;;3.30;2.50;;;19.90;64.60;;;;;;6199738;28;20430;-77
2021/08/24 07:49:30;;;;;;;6.10;2.55;;;20.00;64.40;;;;;;6199267;28;20446;-76
2021/08/24 07:52:32;;;;;;;3.83;2.70;;;20.00;63.70;;;;;;6199561;28;20419;-77
2021/08/24 07:55:35;;;;;;;4.68;2.20;;;20.10;62.80;;;;;;6198563;28;20449;-77
2021/08/24 07:58:38;;;;;;;5.65;2.40;;;20.30;63.30;;;;;;6198774;28;20449;-76
2021/08/24 08:01:40;;;;;;;3.17;2.03;;;20.40;62.70;;;;;;6199820;28;20482;-78
2021/08/24 08:04:42;;;;;;;3.22;2.22;;;20.60;61.10;;;;;;6198614;28;20936;-77
2021/08/24 08:07:44;;;;;;;3.75;1.83;;;20.60;58.90;;;;;;6199737;28;20497;-77
2021/08/24 08:10:46;;;;;;;4.15;2.22;;;20.50;59.50;;;;;;6200140;28;20521;-78
2021/08/24 08:13:49;;;;;;;3.78;2.60;;;20.50;58.00;;;;;;6212092;28;20515;-78
2021/08/24 08:16:51;;;;;;;4.03;1.90;;;20.50;57.90;;;;;;6230925;28;20417;-77
2021/08/24 08:19:53;;;;;;;3.90;2.15;;;20.60;58.00;;;;;;6224941;28;20476;-78
2021/08/24 08:22:55;;;;;;;3.25;2.17;;;20.60;57.50;;;;;;6225311;28;20444;-77
2021/08/24 08:25:57;;;;;;;5.20;2.00;;;20.70;57.50;;;;;;6224550;28;20849;-77
2021/08/24 08:29:03;;;;;;;4.20;2.20;;;20.90;57.30;;;;;;6225040;28;20462;-78
2021/08/24 08:32:10;;;;;;;3.93;2.47;;;20.80;57.80;;;;;;6225450;28;20417;-78
2021/08/24 08:35:14;;;;;;;3.15;1.95;;;21.20;57.30;;;;;;6225061;28;20412;-77
2021/08/24 08:38:16;;;;;;;6.88;2.78;;;21.60;58.00;;;;;;6225246;28;20475;-78
2021/08/24 08:41:27;;;;;;;12.37;3.80;;;22.00;56.70;;;;;;6225927;28;20440;-78
2021/08/24 08:44:37;;;;;;;8.10;4.05;;;22.50;57.00;;;;;;6227605;28;20526;-78
2021/08/24 08:47:54;;;;;;;16.02;5.95;;;23.10;54.80;;;;;;6227529;28;20460;-78
2021/08/24 08:51:00;;;;;;;9.18;4.35;;;23.10;53.10;;;;;;6215417;28;20572;-77
2021/08/24 08:54:17;;;;;;;2.95;1.65;;;23.10;52.40;;;;;;6231487;28;20441;-78
2021/08/24 08:57:23;;;;;;;2.97;2.28;;;23.00;52.20;;;;;;6226267;28;20450;-78
2021/08/24 09:00:40;;;;;;;2.50;1.85;;;22.80;52.00;;;;;;6226223;28;20495;-78
2021/08/24 09:03:54;;;;;;;2.75;2.05;;;22.60;54.00;;;;;;6226268;28;20472;-77
2021/08/24 09:07:00;;;;;;;3.83;2.20;;;22.50;54.20;;;;;;6221741;28;20500;-77
2021/08/24 09:10:03;;;;;;;4.83;1.97;;;22.50;55.10;;;;;;6223398;28;20682;-78
2021/08/24 09:13:09;;;;;;;4.72;2.22;;;22.70;53.50;;;;;;6218467;28;20918;-78
2021/08/24 09:16:24;;;;;;;4.75;2.25;;;22.70;54.10;;;;;;6225892;28;20511;-77
2021/08/24 09:19:32;;;;;;;3.00;1.83;;;22.70;53.60;;;;;;6221550;28;20496;-77
2021/08/24 09:22:34;;;;;;;2.80;2.00;;;22.90;54.90;;;;;;6221926;28;20444;-79
2021/08/24 09:26:01;;;;;;;3.50;2.00;;;23.20;52.90;;;;;;6221283;28;20920;-78
2021/08/24 09:29:04;;;;;;;4.25;2.50;;;23.10;52.60;;;;;;6221210;28;20466;-78
2021/08/24 09:32:09;;;;;;;3.10;2.03;;;23.00;52.50;;;;;;6221626;28;20413;-78
2021/08/24 09:35:26;;;;;;;4.18;2.25;;;22.80;53.30;;;;;;6221224;28;20421;-78
2021/08/24 09:38:33;;;;;;;2.25;2.05;;;22.90;54.10;;;;;;6222294;28;20424;-78
2021/08/24 09:41:37;;;;;;;2.45;1.83;;;23.50;52.90;;;;;;6222088;28;20519;-78
2021/08/24 09:44:39;;;;;;;2.80;1.90;;;23.90;52.30;;;;;;6221568;28;20503;-78
2021/08/24 09:47:42;;;;;;;2.63;1.77;;;24.10;49.60;;;;;;6220425;28;20503;-78
2021/08/24 09:50:45;;;;;;;4.60;2.07;;;24.20;47.80;;;;;;6218424;28;20473;-78
2021/08/24 09:53:53;;;;;;;4.93;2.40;;;24.30;48.50;;;;;;6220665;28;20526;-78
2021/08/24 09:56:59;;;;;;;3.45;1.95;;;24.30;48.30;;;;;;6220987;28;20424;-78
2021/08/24 10:00:07;;;;;;;3.28;2.10;;;24.40;48.20;;;;;;6221035;28;20440;-78
2021/08/24 10:03:30;;;;;;;3.95;2.15;;;24.10;48.10;;;;;;6221328;28;20445;-78
2021/08/24 10:06:34;;;;;;;3.40;2.38;;;24.10;49.70;;;;;;6221676;28;20566;-78
2021/08/24 10:09:38;;;;;;;2.47;1.83;;;23.90;49.20;;;;;;6223650;28;20799;-78
2021/08/24 10:12:40;;;;;;;3.58;1.95;;;24.00;50.50;;;;;;6222014;28;21045;-78
2021/08/24 10:15:42;;;;;;;3.53;1.77;;;24.40;49.70;;;;;;6222178;28;20420;-78
2021/08/24 10:18:49;;;;;;;3.90;2.20;;;24.20;50.30;;;;;;6220963;28;20432;-78
2021/08/24 10:21:57;;;;;;;2.33;2.03;;;24.20;51.10;;;;;;6222229;28;21089;-77
2021/08/24 10:25:02;;;;;;;2.87;1.97;;;24.50;50.90;;;;;;6219470;28;21164;-78
2021/08/24 10:28:08;;;;;;;3.33;1.80;;;24.70;47.90;;;;;;6219649;28;20413;-78
2021/08/24 10:31:24;;;;;;;3.63;1.88;;;24.10;48.60;;;;;;6220518;28;20417;-77
2021/08/24 10:34:33;;;;;;;5.03;2.13;;;23.50;50.60;;;;;;6219914;28;20501;-78
2021/08/24 10:37:41;;;;;;;3.50;1.95;;;23.10;51.10;;;;;;6219421;28;20446;-77
2021/08/24 10:40:45;;;;;;;3.45;2.08;;;22.60;52.90;;;;;;6219133;28;20510;-77
2021/08/24 10:43:54;;;;;;;2.72;1.77;;;22.40;54.10;;;;;;6219594;28;20417;-77
2021/08/24 10:47:04;;;;;;;4.90;2.40;;;22.50;54.70;;;;;;6219197;28;20496;-77
2021/08/24 10:50:16;;;;;;;3.08;1.95;;;22.30;54.60;;;;;;6219500;28;20910;-77
2021/08/24 10:53:34;;;;;;;2.55;1.60;;;22.40;54.80;;;;;;6209581;28;20420;-77
2021/08/24 10:56:43;;;;;;;2.83;2.20;;;22.70;54.70;;;;;;6218622;28;20416;-77
2021/08/24 10:59:51;;;;;;;3.10;1.80;;;22.50;54.00;;;;;;6219631;28;20424;-77
2021/08/24 11:03:07;;;;;;;2.88;2.13;;;22.50;55.20;;;;;;6218961;28;20891;-77
2021/08/24 11:06:18;;;;;;;4.70;1.75;;;22.20;55.20;;;;;;6221113;28;20434;-77
2021/08/24 11:09:30;;;;;;;4.15;1.98;;;22.00;56.00;;;;;;6219221;28;20456;-77
2021/08/24 11:12:40;;;;;;;3.97;1.95;;;21.80;56.40;;;;;;6219158;28;20471;-77
2021/08/24 11:15:48;;;;;;;2.53;2.00;;;22.00;57.00;;;;;;6218151;28;20424;-77
2021/08/24 11:18:56;;;;;;;3.10;2.13;;;22.30;56.60;;;;;;6219043;28;20432;-77
2021/08/24 11:22:09;;;;;;;3.97;2.30;;;22.30;55.70;;;;;;6219505;28;20432;-77
2021/08/24 11:25:30;;;;;;;4.93;2.30;;;22.50;55.90;;;;;;6216838;28;20424;-77
2021/08/24 11:28:42;;;;;;;2.88;2.15;;;22.70;55.60;;;;;;6215233;28;20559;-77
2021/08/24 11:31:51;;;;;;;2.85;2.28;;;22.70;55.90;;;;;;6218528;28;20419;-76
2021/08/24 11:34:58;;;;;;;3.43;2.37;;;22.80;54.80;;;;;;6218421;28;20954;-77
2021/08/24 11:38:06;;;;;;;2.88;2.20;;;22.50;55.90;;;;;;6218841;28;20441;-77
2021/08/24 11:41:11;;;;;;;4.53;2.78;;;22.60;55.60;;;;;;6222178;28;20511;-77
2021/08/24 11:44:16;;;;;;;3.17;2.30;;;22.60;55.60;;;;;;6223113;28;20891;-77
2021/08/24 11:47:23;;;;;;;3.33;2.47;;;22.90;54.90;;;;;;6223112;28;20420;-77
2021/08/24 11:50:33;;;;;;;4.90;3.13;;;22.80;55.20;;;;;;6223151;28;20976;-77
2021/08/24 11:53:43;;;;;;;4.90;3.13;;;22.80;54.20;;;;;;6218720;28;20419;-78
2021/08/24 11:56:54;;;;;;;3.03;2.33;;;22.70;54.90;;;;;;6224040;28;20434;-77
2021/08/24 11:59:57;;;;;;;4.15;2.90;;;22.60;54.30;;;;;;6222530;28;20496;-76
2021/08/24 12:03:02;;;;;;;3.45;2.92;;;22.40;56.20;;;;;;6222326;28;20857;-77
2021/08/24 12:06:09;;;;;;;4.68;2.83;;;22.30;55.90;;;;;;6222721;28;20447;-78
2021/08/24 12:09:18;;;;;;;3.10;2.50;;;22.10;56.50;;;;;;6222374;28;20436;-77
2021/08/24 12:12:48;;;;;;;3.08;2.78;;;21.90;57.00;;;;;;6222427;28;20491;-77
2021/08/24 12:15:52;;;;;;;6.40;2.93;;;21.80;58.50;;;;;;6197518;28;20429;-77
2021/08/24 12:19:14;;;;;;;4.63;2.75;;;21.90;57.40;;;;;;6198477;28;20464;-77
2021/08/24 12:22:28;;;;;;;2.80;2.45;;;21.90;56.90;;;;;;6200590;28;20520;-78
2021/08/24 12:25:36;;;;;;;5.50;2.93;;;21.90;57.40;;;;;;6198547;28;20449;-78
2021/08/24 12:28:39;;;;;;;8.25;3.17;;;21.70;58.60;;;;;;6198307;28;20504;-77
2021/08/24 12:31:44;;;;;;;4.15;2.88;;;21.50;57.90;;;;;;6198095;28;20422;-77
2021/08/24 12:34:51;;;;;;;3.93;2.93;;;21.50;59.50;;;;;;6196809;28;20584;-77
2021/08/24 12:37:56;;;;;;;5.85;3.35;;;21.50;59.00;;;;;;6198733;28;20937;-78
2021/08/24 12:40:59;;;;;;;3.65;2.60;;;21.40;59.90;;;;;;6200182;28;20418;-77
2021/08/24 12:44:19;;;;;;;4.07;2.78;;;21.40;59.90;;;;;;6199971;28;20921;-78
2021/08/24 12:47:44;;;;;;;3.47;2.88;;;21.30;59.50;;;;;;6200266;28;20774;-78
2021/08/24 12:51:02;;;;;;;3.85;3.05;;;21.30;60.10;;;;;;6199329;28;20565;-77
2021/08/24 12:54:04;;;;;;;4.07;2.50;;;21.20;60.10;;;;;;6203889;28;20446;-77
2021/08/24 12:57:16;;;;;;;4.00;2.95;;;21.30;59.20;;;;;;6220411;28;20494;-78
2021/08/24 13:00:27;;;;;;;4.40;3.33;;;21.60;59.50;;;;;;6223949;28;21094;-77
2021/08/24 13:03:29;;;;;;;5.70;3.00;;;21.50;59.10;;;;;;6223777;28;20420;-77
2021/08/24 13:06:34;;;;;;;3.03;2.47;;;21.40;59.50;;;;;;6223201;28;20439;-77
2021/08/24 13:09:41;;;;;;;4.70;2.38;;;21.40;59.90;;;;;;6224240;28;20444;-77
2021/08/24 13:12:45;;;;;;;5.03;3.10;;;21.40;59.20;;;;;;6223621;28;20865;-77
2021/08/24 13:15:52;;;;;;;3.85;2.65;;;21.30;59.90;;;;;;6223358;28;20543;-77
2021/08/24 13:18:57;;;;;;;4.63;2.72;;;21.30;60.10;;;;;;6222629;28;20802;-77
2021/08/24 13:22:02;;;;;;;5.38;2.83;;;21.40;60.00;;;;;;6223414;28;20460;-77
2021/08/24 13:25:05;;;;;;;6.13;3.00;;;21.50;60.10;;;;;;6222121;28;20515;-77
2021/08/24 13:28:13;;;;;;;5.53;3.50;;;21.50;60.10;;;;;;6223474;28;20440;-77
2021/08/24 13:31:33;;;;;;;3.88;2.67;;;21.60;59.10;;;;;;6223173;28;20907;-78
2021/08/24 13:34:44;;;;;;;4.15;2.22;;;21.70;59.40;;;;;;6222863;28;20440;-78
2021/08/24 13:37:48;;;;;;;2.97;2.35;;;21.70;58.30;;;;;;6226137;28;20472;-77
2021/08/24 13:40:52;;;;;;;5.10;3.05;;;21.70;57.90;;;;;;6221474;28;20766;-77
2021/08/24 13:43:57;;;;;;;4.35;2.70;;;21.70;57.20;;;;;;6221907;28;20424;-78
2021/08/24 13:47:02;;;;;;;3.28;2.25;;;21.60;58.00;;;;;;6223872;28;20417;-77
2021/08/24 13:50:26;;;;;;;3.05;2.40;;;21.60;58.00;;;;;;6228527;28;20542;-77
2021/08/24 13:53:30;;;;;;;3.78;2.65;;;21.50;57.40;;;;;;6229370;28;20425;-76
2021/08/24 13:56:34;;;;;;;6.30;2.70;;;21.50;58.30;;;;;;6217352;28;20429;-77
2021/08/24 13:59:49;;;;;;;3.50;2.47;;;21.40;58.10;;;;;;6221114;28;20455;-77
2021/08/24 14:02:51;;;;;;;3.22;2.90;;;21.30;58.30;;;;;;6220449;28;20543;-77
2021/08/24 14:05:57;;;;;;;5.00;2.83;;;21.20;59.60;;;;;;6220544;28;20531;-77
2021/08/24 14:09:02;;;;;;;3.13;2.83;;;21.10;59.90;;;;;;6219720;28;21046;-77
2021/08/24 14:12:09;;;;;;;3.42;2.88;;;21.20;60.50;;;;;;6220254;28;20887;-77
2021/08/24 14:15:21;;;;;;;3.13;2.45;;;21.30;60.80;;;;;;6220388;28;20490;-77
2021/08/24 14:18:26;;;;;;;4.68;2.83;;;21.40;59.50;;;;;;6221024;28;20493;-78
2021/08/24 14:21:30;;;;;;;3.53;2.83;;;21.30;59.10;;;;;;6220022;28;20798;-77
2021/08/24 14:24:33;;;;;;;5.25;2.83;;;21.30;59.40;;;;;;6219839;28;20423;-77
2021/08/24 14:27:35;;;;;;;2.58;2.38;;;21.40;59.30;;;;;;6220778;28;20551;-79
2021/08/24 14:30:38;;;;;;;3.58;2.60;;;21.60;58.50;;;;;;6223288;28;20436;-78
2021/08/24 14:33:44;;;;;;;3.42;2.72;;;21.80;59.10;;;;;;6222828;28;20511;-78
2021/08/24 14:36:56;;;;;;;3.95;2.90;;;22.10;58.30;;;;;;6221655;28;20447;-78
2021/08/24 14:40:01;;;;;;;3.92;2.40;;;22.30;57.50;;;;;;6222315;28;20487;-78
2021/08/24 14:43:06;;;;;;;3.95;2.70;;;22.30;56.20;;;;;;6222746;28;20575;-79
2021/08/24 14:46:09;;;;;;;3.15;2.75;;;22.30;56.80;;;;;;6225136;28;20445;-79
2021/08/24 14:49:18;;;;;;;2.92;2.50;;;22.30;56.40;;;;;;6224330;28;20443;-79
2021/08/24 14:52:28;;;;;;;2.80;2.30;;;22.20;57.30;;;;;;6223826;28;20499;-79
2021/08/24 14:55:32;;;;;;;2.85;2.63;;;22.20;56.50;;;;;;6223203;28;20437;-79
2021/08/24 14:58:34;;;;;;;3.05;2.67;;;22.10;56.70;;;;;;6212137;28;20990;-78
2021/08/24 15:01:38;;;;;;;3.85;2.58;;;21.90;57.10;;;;;;6220596;28;20444;-78
2021/08/24 15:04:43;;;;;;;3.33;2.47;;;22.00;57.20;;;;;;6222905;28;20417;-80
2021/08/24 15:08:00;;;;;;;2.63;2.40;;;22.00;57.70;;;;;;6224464;28;20490;-80
2021/08/24 15:11:06;;;;;;;5.75;2.97;;;22.00;59.00;;;;;;6223219;28;20413;-79
2021/08/24 15:14:17;;;;;;;7.00;2.42;;;22.10;58.60;;;;;;6224884;28;20432;-80
2021/08/24 15:17:35;;;;;;;5.03;2.73;;;21.80;58.50;;;;;;6227518;28;20896;-80
2021/08/24 15:20:41;;;;;;;4.18;3.78;;;21.90;58.40;;;;;;6228171;28;20469;-80
2021/08/24 15:23:43;;;;;;;3.92;3.13;;;21.90;58.10;;;;;;6228716;28;20498;-80
2021/08/24 15:26:48;;;;;;;3.38;3.08;;;21.60;58.70;;;;;;6228173;28;20491;-80
2021/08/24 15:30:09;;;;;;;5.88;3.33;;;21.70;58.60;;;;;;6227442;28;20431;-80
2021/08/24 15:33:24;;;;;;;3.88;3.05;;;21.60;59.10;;;;;;6228040;28;20421;-80
2021/08/24 15:36:29;;;;;;;4.05;3.65;;;21.50;59.40;;;;;;6227198;28;20427;-80
2021/08/24 15:39:35;;;;;;;3.92;3.22;;;21.40;59.90;;;;;;6225870;28;20471;-79
2021/08/24 15:42:38;;;;;;;13.20;3.70;;;21.40;60.10;;;;;;6226063;28;20529;-79
2021/08/24 15:45:39;;;;;;;9.10;3.88;;;21.40;60.60;;;;;;6225705;28;20475;-80
2021/08/24 15:48:42;;;;;;;4.13;3.72;;;21.60;61.10;;;;;;6226309;28;20436;-80
2021/08/24 15:51:47;;;;;;;7.65;3.97;;;21.70;60.20;;;;;;6225844;28;20421;-80
2021/08/24 15:54:49;;;;;;;6.25;3.63;;;21.90;61.10;;;;;;6226088;28;20511;-80
2021/08/24 15:57:51;;;;;;;5.50;4.50;;;22.00;59.90;;;;;;6222365;28;20556;-80
2021/08/24 16:00:53;;;;;;;6.25;4.03;;;21.90;59.40;;;;;;6226574;28;21017;-80
2021/08/24 16:03:55;;;;;;;10.07;6.40;;;21.90;60.20;;;;;;6228574;28;20768;-80
2021/08/24 16:07:00;;;;;;;5.47;3.87;;;21.90;59.70;;;;;;6226240;28;20472;-79
2021/08/24 16:10:04;;;;;;;5.13;3.92;;;21.80;59.50;;;;;;6226532;28;20937;-79